MET1146 - Portland to Ontario

Boeing 737-200
711MT
2 hrs 00 mins
730 nm
Scheduled - M

Bid/PiRep Status

Bid was submitted on Dec 28 2016.

PiRep # 74542: Approved by Dave Nichols on January 1st, 2017 4:06 UTC

Departure

Departing from
Portland (PDX)
Departure gate
Scheduled Departure
GMT 1930
Local 1230
METAR KPDX 221353Z 12006KT 10SM BKN060 OVC080 04/02 A2941 RMK AO2 RAE14 SLP957 P0000 T00440022
TAF KPDX 221133Z 2212/2312 12012KT P6SM -RA BKN050 OVC100 FM221300 12012KT P6SM -SHRA BKN050 OVC100 FM222100 15011KT P6SM -SHRA BKN050 OVC070 FM230000 12010KT P6SM -SHRA BKN050 BKN100
  • No charts available

Arrival

Arriving at
Ontario (ONT)
Arrival gate
Scheduled Arrival
GMT 2130
Local 1430
METAR KONT 221353Z 12004KT 10SM -RA BKN060 OVC080 09/08 A3010 RMK AO2 RAE06B28 SLP196 P0000 T00890078 $
TAF KONT 221135Z 2212/2318 07009KT 6SM -SHRA SCT025 BKN045 OVC060 FM221700 05015G25KT 4SM -SHRA BR SCT010 BKN020 OVC050 TEMPO 2222/2302 25020G40KT 1SM +SHRA BR SCT005 BKN012 FM230400 24015G30KT 4SM -SHRA BR BKN025 OVC050

Route Map

Planning Resources

LHV J5 EHF ZIGGY4
KPDX POWEL LKV HARTT PYRAM FMG TILTS SONNY TIOGA PINNI EHF KONT
KDPX BTG LKV HARTT PYRAM FMG TILTS SONNY TIOGA PINNI EHF ZIGGY KONT
RIVER6 BTG J189 AVE EHF ZIGGY4
KPDX DCT URBIA V165 LKV J5 EHF STAR KONT
Route:
OFP Layout:
Units:
Detailed Navlog:
ETOPS Planning:
Plan Stepclimbs:
Runway Analysis:
Include NOTAMS:
FIR NOTAMS:
Flight Maps:

Return Flights

MET4435
Embraer ERJ-145LR
1500 GMT
MET4437
Embraer ERJ-145LR
2330 GMT

Popularity

Hub Current Bids PiReps this month Total PiReps
KMCI 0 0 3
KLAX 0 0 2
KBOS 0 0 0